This is the latest recevied weather packets stored in our database for station/object W1RCY. If no packets are shown the sender has not sent any weather packets the latest 10 day(s).
| Time | Temp. | Humidity | Pressure | Rain* | Wind** | Luminosity | Snow |
|---|---|---|---|---|---|---|---|
| 1777385588 | 12.78° C | 57% | 1022 hPa | 0 mm | - | 575 W/m² | - |
| 1777385286 | 11.67° C | 62% | 1021.7 hPa | 0 mm | - | 402 W/m² | - |
| 1777384981 | 11.67° C | 60% | 1021.6 hPa | 0 mm | - | 369 W/m² | - |
| 1777384679 | 11.67° C | 62% | 1021.7 hPa | 0 mm | - | 158 W/m² | - |
| 1777384378 | 11.67° C | 62% | 1021.8 hPa | 0 mm | - | 331 W/m² | - |
| 1777384074 | 11.67° C | 62% | 1021.8 hPa | 0 mm | - | 203 W/m² | - |
| 1777383770 | 11.11° C | 64% | 1022 hPa | 0 mm | - | 273 W/m² | - |
| 1777383467 | 10.56° C | 67% | 1022.1 hPa | 0 mm | - | 257 W/m² | - |
| 1777383163 | 11.11° C | 69% | 1022 hPa | 0 mm | - | 135 W/m² | - |
| 1777382860 | 10.56° C | 68% | 1021.9 hPa | 0 mm | - | 292 W/m² | - |
| 1777382555 | 10° C | 73% | 1021.9 hPa | 0 mm | - | 227 W/m² | - |
| 1777382252 | 9.44° C | 75% | 1022.2 hPa | 0 mm | - | 273 W/m² | - |
| 1777381948 | 10° C | 75% | 1022.1 hPa | 0 mm | - | 292 W/m² | - |
| 1777381648 | 8.89° C | 77% | 1022.2 hPa | 0 mm | - | 288 W/m² | - |
| 1777381344 | 8.89° C | 77% | 1022.3 hPa | 0 mm | - | 106 W/m² | - |
| 1777381041 | 8.89° C | 79% | 1022.3 hPa | 0 mm | - | 132 W/m² | - |
| 1777380737 | 7.78° C | 83% | 1022.3 hPa | 0 mm | - | 405 W/m² | - |
| 1777380434 | 7.78° C | 83% | 1022.4 hPa | 0 mm | - | 244 W/m² | - |
| 1777380131 | 8.33° C | 81% | 1022.5 hPa | 0 mm | - | 196 W/m² | - |
| 1777379826 | 8.33° C | 82% | 1022.4 hPa | 0 mm | - | 245 W/m² | - |
| 1777379523 | 7.78° C | 85% | 1022.4 hPa | 0 mm | - | 213 W/m² | - |
| 1777379217 | 7.22° C | 87% | 1022.4 hPa | 0 mm | - | 244 W/m² | - |
| 1777378913 | 6.67° C | 88% | 1022.3 hPa | 0 mm | - | 134 W/m² | - |
| 1777378609 | 7.22° C | 88% | 1022.4 hPa | 0 mm | - | 211 W/m² | - |
| 1777378304 | 6.67° C | 89% | 1022.5 hPa | 0 mm | - | 265 W/m² | - |
* Rain latest hour (hover to see other rain measurements)
** Current wind speed in m/s (hover to see current wind gust speed)